createdAt,value
2022-10-13T00:04:28.930Z,65721.75
2022-10-13T00:09:33.426Z,65665.66
2022-10-13T00:14:38.638Z,65727.59
2022-10-13T00:19:42.422Z,65619.16
2022-10-13T00:24:52.071Z,65656.25
2022-10-13T00:29:57.221Z,65663.09
2022-10-13T00:35:01.005Z,65637.94
2022-10-13T00:40:06.142Z,65589.19
2022-10-13T00:45:22.310Z,65711.06
2022-10-13T00:50:31.080Z,65692.38
2022-10-13T00:55:37.923Z,65656.16
2022-10-13T01:00:46.259Z,65689.59
2022-10-13T01:05:54.833Z,65683.28
2022-10-13T01:11:13.398Z,65683.81
2022-10-13T01:16:30.783Z,65736.16
2022-10-13T01:21:42.301Z,65611.44
2022-10-13T01:27:11.554Z,65574.97
2022-10-13T01:32:25.441Z,65656.16
2022-10-13T01:37:37.466Z,65619.78
2022-10-13T01:42:48.167Z,65575.59
2022-10-13T01:47:54.431Z,65588.84
2022-10-13T01:53:02.088Z,65577.00
2022-10-13T01:58:05.909Z,65656.41
2022-10-13T02:03:18.859Z,65659.06
2022-10-13T02:08:29.644Z,65706.78
2022-10-13T02:13:38.131Z,65687.03
2022-10-13T02:18:47.460Z,65636.66
2022-10-13T02:23:51.693Z,65610.38
2022-10-13T02:28:57.507Z,65674.84
2022-10-13T02:34:02.866Z,65611.25
2022-10-13T02:39:07.520Z,65618.28
2022-10-13T02:44:11.659Z,65644.44
2022-10-13T02:49:19.957Z,65588.41
2022-10-13T02:54:23.753Z,65630.66
2022-10-13T02:59:27.551Z,65685.53
2022-10-13T03:04:33.111Z,65686.50
2022-10-13T03:09:40.077Z,65694.50
2022-10-13T03:14:44.161Z,65709.25
2022-10-13T03:19:49.390Z,65684.25
2022-10-13T03:24:55.370Z,65620.22
2022-10-13T03:29:59.079Z,65694.06
2022-10-13T03:35:06.493Z,65648.59
2022-10-13T03:40:11.302Z,65595.25
2022-10-13T03:45:15.100Z,65613.28
2022-10-13T03:50:20.462Z,65655.44
2022-10-13T03:55:25.255Z,65698.34
2022-10-13T04:00:29.158Z,65673.16
2022-10-13T04:05:36.406Z,65666.75
2022-10-13T04:10:40.305Z,65728.03
2022-10-13T04:15:44.196Z,65718.63
2022-10-13T04:20:49.404Z,65651.34
2022-10-13T04:25:53.134Z,65634.72
2022-10-13T04:30:57.035Z,65581.28
2022-10-13T04:36:05.329Z,65627.69
2022-10-13T04:41:11.169Z,65649.66
2022-10-13T04:46:17.959Z,65654.91
2022-10-13T04:51:25.321Z,65695.03
2022-10-13T04:56:29.774Z,65713.19
2022-10-13T05:01:38.134Z,65634.09
2022-10-13T05:07:12.642Z,65630.38
2022-10-13T05:12:10.748Z,65653.75
2022-10-13T05:17:14.510Z,65719.50
2022-10-13T05:22:20.021Z,65716.91
2022-10-13T05:27:24.282Z,65769.47
2022-10-13T05:32:28.153Z,65803.50
2022-10-13T05:37:33.770Z,65791.06
2022-10-13T05:42:38.320Z,65774.09
2022-10-13T05:47:42.242Z,65736.78
2022-10-13T05:52:47.894Z,65719.16
2022-10-13T05:57:53.327Z,65776.75
2022-10-13T06:03:04.840Z,65732.94
2022-10-13T06:14:17.427Z,65826.91
2022-10-13T06:20:33.761Z,65854.28
2022-10-13T06:26:59.148Z,65884.84
2022-10-13T06:32:49.305Z,65831.72
2022-10-13T06:59:18.067Z,66089.09
2022-10-13T07:11:56.831Z,66128.81
2022-10-13T07:24:45.199Z,66159.97
2022-10-13T07:30:47.667Z,66179.72
2022-10-13T07:50:18.596Z,66306.44
2022-10-13T07:56:29.088Z,66330.41
2022-10-13T08:08:50.733Z,66318.09
2022-10-13T08:15:18.777Z,66398.81
2022-10-13T08:22:02.572Z,66450.66
2022-10-13T08:28:15.647Z,66376.56
2022-10-13T08:33:57.144Z,66500.25
2022-10-13T08:39:14.161Z,66478.06
2022-10-13T08:45:22.276Z,66397.50
2022-10-13T08:51:06.868Z,66486.28
2022-10-13T08:56:46.530Z,66517.28
2022-10-13T09:03:01.512Z,66551.13
2022-10-13T09:08:54.266Z,66566.81
2022-10-13T09:14:10.490Z,66646.91
2022-10-13T09:19:50.953Z,66552.25
2022-10-13T09:25:37.168Z,66524.94
2022-10-13T09:31:40.971Z,66618.50
2022-10-13T09:37:42.460Z,66542.22
2022-10-13T09:43:43.582Z,66562.97
2022-10-13T09:49:26.712Z,66624.16
2022-10-13T09:55:01.592Z,66636.13
2022-10-13T10:00:21.891Z,66671.66
2022-10-13T10:05:55.841Z,66729.16
2022-10-13T10:11:17.175Z,66656.50
2022-10-13T10:16:38.568Z,66694.25
2022-10-13T10:22:04.394Z,66843.28
2022-10-13T10:27:33.692Z,66720.38
2022-10-13T10:32:57.940Z,66712.94
2022-10-13T10:38:38.407Z,66811.03
2022-10-13T10:44:00.927Z,66691.56
2022-10-13T10:49:28.972Z,66627.63
2022-10-13T10:55:00.103Z,66769.03
2022-10-13T11:00:19.237Z,66714.00
2022-10-13T11:05:37.171Z,66743.28
2022-10-13T11:10:56.486Z,66884.22
2022-10-13T11:16:37.919Z,66926.78
2022-10-13T11:22:14.997Z,66826.75
2022-10-13T11:27:44.554Z,66872.84
2022-10-13T11:32:57.572Z,66987.69
2022-10-13T11:38:24.429Z,67082.69
2022-10-13T11:44:02.634Z,67282.97
2022-10-13T11:49:48.321Z,67328.69
2022-10-13T11:55:23.355Z,67455.38
2022-10-13T12:00:40.925Z,67325.72
2022-10-13T12:06:07.908Z,67284.59
2022-10-13T12:11:36.924Z,67517.09
2022-10-13T12:17:24.135Z,67616.56
2022-10-13T12:22:44.973Z,67618.72
2022-10-13T12:28:11.592Z,67564.09
2022-10-13T12:33:53.155Z,67637.31
2022-10-13T12:39:25.590Z,67552.16
2022-10-13T12:44:55.368Z,67553.91
2022-10-13T12:50:45.561Z,67405.06
2022-10-13T12:56:08.818Z,67494.84
2022-10-13T13:01:52.900Z,67508.88
2022-10-13T13:07:32.769Z,67403.94
2022-10-13T13:12:45.063Z,67485.13
2022-10-13T13:32:47.011Z,67387.78
2022-10-13T13:38:13.147Z,67446.78
2022-10-13T13:44:14.691Z,67337.94
2022-10-13T13:49:57.348Z,67229.56
2022-10-13T13:55:31.408Z,67180.97
2022-10-13T14:01:14.795Z,67229.94
2022-10-13T14:07:25.836Z,67246.66
2022-10-13T14:13:11.411Z,67201.34
2022-10-13T14:18:55.785Z,67286.69
2022-10-13T14:26:37.334Z,67329.91
2022-10-13T14:31:46.181Z,67259.28
2022-10-13T14:38:01.789Z,67295.38
2022-10-13T14:43:56.229Z,67279.72
2022-10-13T14:49:51.886Z,67311.53
2022-10-13T15:01:45.324Z,67247.78
2022-10-13T15:08:34.037Z,67222.94
2022-10-13T15:14:28.785Z,67134.47
2022-10-13T15:20:50.745Z,67103.09
2022-10-13T15:26:17.906Z,67069.19
2022-10-13T15:31:39.548Z,67034.06
2022-10-13T15:36:48.992Z,66976.84
2022-10-13T15:42:03.153Z,66938.03
2022-10-13T15:47:08.299Z,66889.69
2022-10-13T15:52:14.847Z,66848.69
2022-10-13T15:57:24.589Z,66757.13
2022-10-13T16:02:32.282Z,66708.78
2022-10-13T16:07:42.573Z,66702.88
2022-10-13T16:12:54.053Z,66564.50
2022-10-13T16:18:01.362Z,66431.31
2022-10-13T16:23:07.083Z,66355.69
2022-10-13T16:28:11.015Z,66297.06
2022-10-13T16:33:15.690Z,66277.47
2022-10-13T16:38:21.005Z,66291.34
2022-10-13T16:43:25.283Z,66319.16
2022-10-13T16:48:36.665Z,66227.34
2022-10-13T16:53:42.080Z,66148.72
2022-10-13T16:58:46.075Z,66185.16
2022-10-13T17:03:51.256Z,66080.97
2022-10-13T17:08:57.856Z,66085.97
2022-10-13T17:14:02.661Z,66022.16
2022-10-13T17:19:11.796Z,66027.69
2022-10-13T17:24:21.052Z,65999.13
2022-10-13T17:29:25.295Z,65997.25
2022-10-13T17:34:30.839Z,66053.31
2022-10-13T17:39:37.903Z,66166.94
2022-10-13T17:44:42.800Z,66216.69
2022-10-13T17:55:44.909Z,66077.91
2022-10-13T18:01:12.445Z,66055.34
2022-10-13T18:06:23.705Z,66055.97
2022-10-13T18:11:33.789Z,66050.72
2022-10-13T18:16:43.823Z,65941.44
2022-10-13T18:21:54.453Z,65959.97
2022-10-13T18:27:10.319Z,66098.72
2022-10-13T18:32:20.476Z,66132.56
2022-10-13T18:37:27.107Z,66158.34
2022-10-13T18:42:37.901Z,66058.75
2022-10-13T18:47:52.881Z,66019.03
2022-10-13T18:53:07.603Z,65992.78
2022-10-13T18:58:58.425Z,66062.31
2022-10-13T19:04:27.405Z,66063.47
2022-10-13T19:09:37.872Z,65905.59
2022-10-13T19:14:46.087Z,65981.63
2022-10-13T19:19:56.768Z,65911.03
2022-10-13T19:25:06.654Z,65957.47
2022-10-13T19:30:47.270Z,65998.25
2022-10-13T19:35:55.876Z,65996.63
2022-10-13T19:41:04.790Z,65993.41
2022-10-13T19:46:10.440Z,66021.50
2022-10-13T19:51:16.041Z,66014.19
2022-10-13T19:56:22.482Z,65992.88
2022-10-13T20:01:29.760Z,66025.53
2022-10-13T20:06:37.894Z,66038.19
2022-10-13T20:11:42.680Z,66016.78
2022-10-13T20:16:47.265Z,66030.78
2022-10-13T20:21:54.509Z,66073.28
2022-10-13T20:26:58.500Z,66047.41
2022-10-13T20:32:04.495Z,66011.53
2022-10-13T20:37:16.690Z,66065.78
2022-10-13T20:42:20.763Z,66136.47
2022-10-13T20:47:27.341Z,66205.44
2022-10-13T20:52:37.811Z,66155.00
2022-10-13T20:57:41.871Z,66082.31
2022-10-13T21:02:47.466Z,66142.66
2022-10-13T21:07:52.866Z,66193.09
2022-10-13T21:12:56.753Z,66191.94
2022-10-13T21:18:02.613Z,66101.41
2022-10-13T21:23:08.881Z,66078.47
2022-10-13T21:28:13.431Z,66072.84
2022-10-13T21:33:17.812Z,66136.75
2022-10-13T21:38:23.258Z,66211.88
2022-10-13T21:43:27.326Z,66078.47
2022-10-13T21:48:31.308Z,66121.22
2022-10-13T21:53:36.946Z,66140.50
2022-10-13T21:58:41.118Z,66164.72
2022-10-13T22:03:47.149Z,66195.63
2022-10-13T22:08:56.962Z,66182.75
2022-10-13T22:14:01.471Z,66112.22
2022-10-13T22:19:05.601Z,66105.25
2022-10-13T22:24:15.322Z,66121.13
2022-10-13T22:29:24.285Z,66076.94
2022-10-13T22:34:29.106Z,66054.81
2022-10-13T22:39:35.073Z,66005.19
2022-10-13T22:44:48.338Z,66093.38
2022-10-13T22:49:52.781Z,66055.28
2022-10-13T22:54:58.526Z,66093.09
2022-10-13T23:00:05.403Z,66048.03
2022-10-13T23:05:10.164Z,66046.75
2022-10-13T23:10:16.190Z,66092.41
2022-10-13T23:15:20.316Z,66112.84
2022-10-13T23:20:26.138Z,66008.41
2022-10-13T23:25:32.507Z,66146.13
2022-10-13T23:30:36.624Z,66154.53
2022-10-13T23:35:41.034Z,66064.53
2022-10-13T23:40:47.860Z,66000.81
2022-10-13T23:45:53.025Z,65975.50
2022-10-13T23:50:57.442Z,65921.00
2022-10-13T23:56:03.883Z,65963.47
